Terminal Aerodrome Forecast
Issued by NWS

Home | Current Version | Previous Version | Text Only | Print | Product List | Glossary On
Versions: 1 2 3 4 5 6 7 8 9 10 11 12 13 14 15 16 17 18 19 20 21 22 23 24
000
FTUS46 KMFR 272214 AAC
TAFOTH
TAF AMD
KOTH 272214Z 2722/2818 16010KT 6SM -SHRA BR BKN025 OVC040
      WS020/21040KT
     FM280000 18009G16KT P6SM -SHRA BKN025 OVC040 WS020/21040KT
     FM280700 18012G21KT 5SM -RA BR OVC020=

USA.gov is the U.S. government's official web portal to all federal, state and local government web resources and services.